createdAt,value
2023-01-12T00:00:22.737Z,6.97
2023-01-12T00:05:24.846Z,3.58
2023-01-12T00:10:26.939Z,3.97
2023-01-12T00:15:30.460Z,6.70
2023-01-12T00:20:32.636Z,8.73
2023-01-12T00:25:34.718Z,9.70
2023-01-12T00:30:38.267Z,9.75
2023-01-12T00:35:40.441Z,7.85
2023-01-12T00:40:42.547Z,14.45
2023-01-12T00:45:49.783Z,12.27
2023-01-12T00:55:53.668Z,9.25
2023-01-12T01:01:05.609Z,11.43
2023-01-12T01:06:08.482Z,9.80
2023-01-12T01:11:12.500Z,10.30
2023-01-12T01:16:18.155Z,11.57
2023-01-12T01:21:20.297Z,8.63
2023-01-12T01:26:23.609Z,13.95
2023-01-12T01:31:27.458Z,11.77
2023-01-12T01:36:29.624Z,9.40
2023-01-12T01:41:32.997Z,10.90
2023-01-12T01:46:42.511Z,12.07
2023-01-12T01:51:46.149Z,11.32
2023-01-12T01:56:50.147Z,18.48
2023-01-12T02:01:55.161Z,14.23
2023-01-12T02:06:59.714Z,17.98
2023-01-12T02:12:02.776Z,14.40
2023-01-12T02:17:19.707Z,13.82
2023-01-12T02:22:53.665Z,12.00
2023-01-12T02:28:31.206Z,10.80
2023-01-12T02:33:49.296Z,11.68
2023-01-12T02:38:57.500Z,11.57
2023-01-12T02:43:59.705Z,7.72
2023-01-12T02:49:08.381Z,9.27
2023-01-12T02:54:12.660Z,15.43
2023-01-12T02:59:18.651Z,10.75
2023-01-12T03:04:24.190Z,15.13
2023-01-12T03:09:31.143Z,8.48
2023-01-12T03:14:38.285Z,11.77
2023-01-12T03:19:44.860Z,11.55
2023-01-12T03:24:49.820Z,7.70
2023-01-12T03:29:57.356Z,9.25
2023-01-12T03:35:01.127Z,14.32
2023-01-12T03:40:09.498Z,13.82
2023-01-12T03:45:19.951Z,17.70
2023-01-12T03:50:29.017Z,18.05
2023-01-12T03:55:32.986Z,12.18
2023-01-12T04:00:35.828Z,12.88
2023-01-12T04:05:40.357Z,8.50
2023-01-12T04:10:42.543Z,8.77
2023-01-12T04:15:46.443Z,11.70
2023-01-12T04:20:49.962Z,8.18
2023-01-12T04:25:52.071Z,11.60
2023-01-12T04:30:54.201Z,7.07
2023-01-12T04:35:57.725Z,8.25
2023-01-12T04:40:59.867Z,7.35
2023-01-12T04:46:05.494Z,6.53
2023-01-12T04:51:09.058Z,10.25
2023-01-12T04:56:11.133Z,5.85
2023-01-12T05:01:15.369Z,6.95
2023-01-12T05:06:18.939Z,6.55
2023-01-12T05:11:21.426Z,5.35
2023-01-12T05:16:23.961Z,5.38
2023-01-12T05:21:27.485Z,5.07
2023-01-12T05:26:29.606Z,5.60
2023-01-12T05:31:34.477Z,6.03
2023-01-12T05:36:37.998Z,4.75
2023-01-12T05:41:40.110Z,7.80
2023-01-12T05:46:42.302Z,4.75
2023-01-12T05:51:45.839Z,4.32
2023-01-12T05:56:49.867Z,2.05
2023-01-12T06:01:52.331Z,3.63
2023-01-12T06:06:55.842Z,3.33
2023-01-12T06:11:57.918Z,5.90
2023-01-12T06:17:00.094Z,3.90
2023-01-12T06:22:03.561Z,4.15
2023-01-12T06:27:05.733Z,3.00
2023-01-12T06:32:07.951Z,4.57
2023-01-12T06:37:11.495Z,2.58
2023-01-12T06:42:13.604Z,2.08
2023-01-12T06:47:15.720Z,3.95
2023-01-12T06:52:20.667Z,3.67
2023-01-12T06:57:22.980Z,2.08
2023-01-12T07:02:25.080Z,1.77
2023-01-12T07:07:28.662Z,4.38
2023-01-12T07:12:31.163Z,4.28
2023-01-12T07:17:33.397Z,2.78
2023-01-12T07:22:37.030Z,3.10
2023-01-12T07:27:39.118Z,1.67
2023-01-12T07:32:41.813Z,2.95
2023-01-12T07:37:49.324Z,6.28
2023-01-12T07:42:59.437Z,2.78
2023-01-12T07:48:01.658Z,3.13
2023-01-12T07:53:05.268Z,0.77
2023-01-12T07:58:07.417Z,2.38
2023-01-12T08:03:11.948Z,2.35
2023-01-12T08:08:15.750Z,1.63
2023-01-12T08:13:18.631Z,0.95
2023-01-12T08:18:25.590Z,1.77
2023-01-12T08:23:33.997Z,0.60
2023-01-12T08:28:40.361Z,0.77
2023-01-12T08:33:43.331Z,1.13
2023-01-12T08:38:47.074Z,0.60
2023-01-12T08:43:49.185Z,1.65
2023-01-12T08:48:51.377Z,1.10
2023-01-12T08:53:55.001Z,1.63
2023-01-12T08:58:57.065Z,0.85
2023-01-12T09:04:00.076Z,0.80
2023-01-12T09:09:06.521Z,1.25
2023-01-12T09:14:09.027Z,3.80
2023-01-12T09:19:11.422Z,1.98
2023-01-12T09:24:15.894Z,2.67
2023-01-12T09:29:18.005Z,3.38
2023-01-12T09:34:20.167Z,4.15
2023-01-12T09:39:27.725Z,5.70
2023-01-12T09:44:35.092Z,8.23
2023-01-12T09:49:41.632Z,6.53
2023-01-12T09:54:47.928Z,7.63
2023-01-12T09:59:58.522Z,8.88
2023-01-12T10:05:06.217Z,9.32
2023-01-12T10:10:15.644Z,10.70
2023-01-12T10:15:41.068Z,7.68
2023-01-12T10:20:45.086Z,5.88
2023-01-12T10:25:51.560Z,7.22
2023-01-12T10:30:56.422Z,11.67
2023-01-12T10:36:01.881Z,10.90
2023-01-12T10:41:12.553Z,11.10
2023-01-12T10:46:16.898Z,7.97
2023-01-12T10:51:25.371Z,7.35
2023-01-12T10:56:34.179Z,7.03
2023-01-12T11:01:47.915Z,9.73
2023-01-12T11:07:00.484Z,10.50
2023-01-12T11:12:06.595Z,11.23
2023-01-12T11:17:27.996Z,9.30
2023-01-12T11:22:33.253Z,8.35
2023-01-12T11:27:42.310Z,6.38
2023-01-12T11:32:48.632Z,10.60
2023-01-12T11:37:55.554Z,7.47
2023-01-12T11:43:10.852Z,5.97
2023-01-12T11:48:22.383Z,10.57
2023-01-12T11:53:25.608Z,9.77
2023-01-12T11:58:36.527Z,7.72
2023-01-12T12:03:58.896Z,9.00
2023-01-12T12:09:13.140Z,9.95
2023-01-12T12:14:33.069Z,9.02
2023-01-12T12:19:45.099Z,9.10
2023-01-12T12:25:13.579Z,8.45
2023-01-12T12:30:48.935Z,8.13
2023-01-12T12:36:13.395Z,6.07
2023-01-12T12:41:32.119Z,5.85
2023-01-12T12:46:45.677Z,8.75
2023-01-12T12:51:48.825Z,6.78
2023-01-12T12:56:51.173Z,8.60
2023-01-12T13:01:58.993Z,8.32
2023-01-12T13:07:06.506Z,7.40
2023-01-12T13:12:21.925Z,6.97
2023-01-12T13:17:44.036Z,4.45
2023-01-12T13:22:48.302Z,5.57
2023-01-12T13:27:52.867Z,7.30
2023-01-12T13:33:01.201Z,5.68
2023-01-12T13:38:11.783Z,5.82
2023-01-12T13:43:20.574Z,7.80
2023-01-12T13:48:25.413Z,5.55
2023-01-12T13:53:29.614Z,5.13
2023-01-12T13:58:39.290Z,5.03
2023-01-12T14:04:01.163Z,9.95
2023-01-12T14:09:14.738Z,3.60
2023-01-12T14:15:04.620Z,7.97
2023-01-12T14:20:16.570Z,5.80
2023-01-12T14:25:22.050Z,5.55
2023-01-12T14:30:27.031Z,6.05
2023-01-12T14:35:30.598Z,7.20
2023-01-12T14:40:34.031Z,8.98
2023-01-12T14:45:37.245Z,6.43
2023-01-12T14:50:40.913Z,6.60
2023-01-12T14:55:43.094Z,8.15
2023-01-12T15:00:45.339Z,11.05
2023-01-12T15:05:49.022Z,7.55
2023-01-12T15:10:57.889Z,8.75
2023-01-12T15:16:01.390Z,8.90
2023-01-12T15:21:05.421Z,10.77
2023-01-12T15:26:07.576Z,10.98
2023-01-12T15:31:19.389Z,9.73
2023-01-12T15:36:23.319Z,13.55
2023-01-12T15:41:29.169Z,12.32
2023-01-12T15:46:31.417Z,14.60
2023-01-12T15:51:35.887Z,13.48
2023-01-12T15:56:38.022Z,12.38
2023-01-12T16:01:44.046Z,12.18
2023-01-12T16:06:47.712Z,14.82
2023-01-12T16:11:49.861Z,10.25
2023-01-12T16:16:52.057Z,14.13
2023-01-12T16:21:56.927Z,10.23
2023-01-12T16:26:59.076Z,5.55
2023-01-12T16:32:01.249Z,4.35
2023-01-12T16:37:05.374Z,6.00
2023-01-12T16:42:07.518Z,4.70
2023-01-12T16:47:13.423Z,3.08
2023-01-12T16:52:19.292Z,3.58
2023-01-12T16:57:21.425Z,2.83
2023-01-12T17:02:23.899Z,4.07
2023-01-12T17:07:28.675Z,3.03
2023-01-12T17:12:31.472Z,2.50
2023-01-12T17:17:34.308Z,1.23
2023-01-12T17:22:38.143Z,0.77
2023-01-12T17:27:40.289Z,0.88
2023-01-12T17:32:42.483Z,0.73
2023-01-12T17:37:46.173Z,0.60
2023-01-12T17:42:48.291Z,0.50
2023-01-12T17:47:50.503Z,1.17
2023-01-12T17:52:54.040Z,0.90
2023-01-12T17:57:56.259Z,1.33
2023-01-12T18:02:58.979Z,1.23
2023-01-12T18:08:02.495Z,0.47
2023-01-12T18:13:04.858Z,0.70
2023-01-12T18:18:07.363Z,1.05
2023-01-12T18:23:11.157Z,1.95
2023-01-12T18:28:13.453Z,0.90
2023-01-12T18:33:15.592Z,1.00
2023-01-12T18:38:19.360Z,1.00
2023-01-12T18:43:21.509Z,1.40
2023-01-12T18:48:23.624Z,1.15
2023-01-12T18:53:27.216Z,1.05
2023-01-12T18:58:31.420Z,1.05
2023-01-12T19:03:33.616Z,1.85
2023-01-12T19:08:37.186Z,1.58
2023-01-12T19:13:40.211Z,1.35
2023-01-12T19:18:42.315Z,1.90
2023-01-12T19:23:46.544Z,2.10
2023-01-12T19:28:48.733Z,2.78
2023-01-12T19:33:50.877Z,1.60
2023-01-12T19:38:54.471Z,1.55
2023-01-12T19:43:56.706Z,3.65
2023-01-12T19:48:58.870Z,3.15
2023-01-12T19:54:02.391Z,2.40
2023-01-12T19:59:04.654Z,1.92
2023-01-12T20:04:06.780Z,1.70
2023-01-12T20:09:10.318Z,1.70
2023-01-12T20:14:13.626Z,1.73
2023-01-12T20:19:15.804Z,1.83
2023-01-12T20:24:19.366Z,2.92
2023-01-12T20:29:23.975Z,1.85
2023-01-12T20:34:30.790Z,3.22
2023-01-12T20:39:34.445Z,2.50
2023-01-12T20:44:36.581Z,6.07
2023-01-12T20:49:38.848Z,6.10
2023-01-12T20:54:42.477Z,4.50
2023-01-12T20:59:44.869Z,4.10
2023-01-12T21:04:47.007Z,4.75
2023-01-12T21:09:50.535Z,6.63
2023-01-12T21:14:52.623Z,4.47
2023-01-12T21:19:54.705Z,3.38
2023-01-12T21:24:58.219Z,5.20
2023-01-12T21:30:00.345Z,3.35
2023-01-12T21:35:02.451Z,5.63
2023-01-12T21:40:07.231Z,5.85
2023-01-12T21:45:09.849Z,4.47
2023-01-12T21:50:12.590Z,6.30
2023-01-12T21:55:16.178Z,6.20
2023-01-12T22:00:19.005Z,6.47
2023-01-12T22:05:21.691Z,6.70
2023-01-12T22:10:25.614Z,5.53
2023-01-12T22:15:29.835Z,6.72
2023-01-12T22:20:32.159Z,3.00
2023-01-12T22:25:37.530Z,2.58
2023-01-12T22:30:39.612Z,8.93
2023-01-12T22:35:41.726Z,12.52
2023-01-12T22:40:45.292Z,5.75
2023-01-12T22:45:47.418Z,5.03
2023-01-12T22:50:49.578Z,3.33
2023-01-12T22:55:53.132Z,4.93
2023-01-12T23:00:55.425Z,8.32
2023-01-12T23:05:57.798Z,8.13
2023-01-12T23:11:06.148Z,4.20
2023-01-12T23:16:09.883Z,3.47
2023-01-12T23:21:14.484Z,3.70
2023-01-12T23:26:20.211Z,6.13
2023-01-12T23:31:24.930Z,9.02
2023-01-12T23:36:30.771Z,5.28
2023-01-12T23:41:36.055Z,6.05
2023-01-12T23:46:40.232Z,6.40
2023-01-12T23:51:42.430Z,4.93
2023-01-12T23:56:46.036Z,7.20
